createdAt,value
2018-09-11T00:00:56.544Z,17.2
2018-09-11T00:05:58.945Z,17.2
2018-09-11T00:11:01.427Z,17.1
2018-09-11T00:16:03.917Z,17.2
2018-09-11T00:21:06.431Z,17.2
2018-09-11T00:26:08.796Z,17.1
2018-09-11T00:31:11.532Z,17.1
2018-09-11T00:36:13.696Z,17
2018-09-11T00:41:16.180Z,17
2018-09-11T00:46:19.019Z,17
2018-09-11T00:51:21.555Z,16.9
2018-09-11T00:56:23.608Z,17
2018-09-11T01:01:26.017Z,17
2018-09-11T01:06:28.452Z,16.9
2018-09-11T01:11:30.897Z,16.8
2018-09-11T01:16:33.401Z,16.7
2018-09-11T01:21:35.826Z,16.7
2018-09-11T01:26:38.431Z,16.7
2018-09-11T01:31:40.756Z,16.7
2018-09-11T01:36:43.205Z,16.6
2018-09-11T01:41:45.666Z,16.6
2018-09-11T01:46:48.192Z,16.6
2018-09-11T01:51:50.563Z,16.5
2018-09-11T01:56:53.103Z,16.4
2018-09-11T02:01:55.482Z,16.4
2018-09-11T02:06:57.942Z,16.3
2018-09-11T02:12:00.401Z,16.3
2018-09-11T02:17:03.029Z,16.3
2018-09-11T02:22:10.341Z,16.2
2018-09-11T02:27:07.815Z,16.1
2018-09-11T02:32:10.261Z,16
2018-09-11T02:37:12.714Z,16
2018-09-11T02:42:15.181Z,15.9
2018-09-11T02:47:17.720Z,15.7
2018-09-11T02:52:20.097Z,15.5
2018-09-11T02:57:22.635Z,15.4
2018-09-11T03:02:25.017Z,15.3
2018-09-11T03:07:27.476Z,15.2
2018-09-11T03:12:29.997Z,15.2
2018-09-11T03:17:32.368Z,15.3
2018-09-11T03:22:34.824Z,15.4
2018-09-11T03:27:37.336Z,15.5
2018-09-11T03:32:39.730Z,15.6
2018-09-11T03:37:42.190Z,15.7
2018-09-11T03:42:44.641Z,15.7
2018-09-11T03:47:47.132Z,15.7
2018-09-11T03:52:49.673Z,15.6
2018-09-11T03:57:52.072Z,15.5
2018-09-11T04:02:54.476Z,15.5
2018-09-11T04:07:56.996Z,15.5
2018-09-11T04:12:59.403Z,15.5
2018-09-11T04:18:02.021Z,15.5
2018-09-11T04:23:04.340Z,15.5
2018-09-11T04:28:11.898Z,15.6
2018-09-11T04:33:09.350Z,15.6
2018-09-11T04:38:11.741Z,15.6
2018-09-11T04:43:14.148Z,15.5
2018-09-11T04:48:16.622Z,15.5
2018-09-11T04:53:19.137Z,15.4
2018-09-11T04:58:21.526Z,15.5
2018-09-11T05:03:24.043Z,15.5
2018-09-11T05:08:26.436Z,15.5
2018-09-11T05:13:28.890Z,15.6
2018-09-11T05:18:31.429Z,15.6
2018-09-11T05:23:33.994Z,15.7
2018-09-11T05:28:36.341Z,15.7
2018-09-11T05:33:38.721Z,15.7
2018-09-11T05:38:41.286Z,15.6
2018-09-11T05:43:43.897Z,15.8
2018-09-11T05:48:46.099Z,15.9
2018-09-11T05:53:48.560Z,16.1
2018-09-11T05:58:51.027Z,16.3
2018-09-11T06:03:53.564Z,16.6
2018-09-11T06:08:55.931Z,16.9
2018-09-11T06:13:58.493Z,17.2
2018-09-11T06:19:00.851Z,17.5
2018-09-11T06:24:03.591Z,18.2
2018-09-11T06:29:05.813Z,19.6
2018-09-11T06:34:08.243Z,23
2018-09-11T06:39:10.888Z,24.2
2018-09-11T06:44:13.218Z,24.2
2018-09-11T06:49:15.594Z,23.7
2018-09-11T06:54:18.618Z,23.4
2018-09-11T06:59:20.838Z,23
2018-09-11T07:04:23.108Z,22.7
2018-09-11T07:09:25.527Z,23.3
2018-09-11T07:14:27.919Z,26.6
2018-09-11T07:19:30.788Z,27.1
2018-09-11T07:24:32.899Z,26.2
2018-09-11T07:29:35.284Z,24.9
2018-09-11T07:34:37.746Z,24.3
2018-09-11T07:39:40.341Z,26.2
2018-09-11T07:44:42.690Z,28.2
2018-09-11T07:49:45.146Z,29.8
2018-09-11T07:54:47.797Z,30.9
2018-09-11T07:59:50.129Z,31.7
2018-09-11T08:04:52.629Z,31.4
2018-09-11T08:09:54.963Z,30.6
2018-09-11T08:14:57.431Z,29.6
2018-09-11T08:20:00.035Z,29.6
2018-09-11T08:25:02.395Z,30
2018-09-11T08:30:04.874Z,30.2
2018-09-11T08:35:07.336Z,30.3
2018-09-11T08:40:09.754Z,31
2018-09-11T08:45:12.181Z,30.6
2018-09-11T08:50:14.823Z,29.3
2018-09-11T08:55:17.160Z,28.5
2018-09-11T09:00:19.690Z,27.5
2018-09-11T09:05:22.044Z,26.9
2018-09-11T09:10:25.249Z,26.6
2018-09-11T09:15:27.349Z,26.3
2018-09-11T09:20:29.420Z,25.7
2018-09-11T09:25:31.857Z,25
2018-09-11T09:30:34.328Z,24.6
2018-09-11T09:35:36.795Z,24.5
2018-09-11T09:40:39.224Z,24.5
2018-09-11T09:45:41.681Z,24.6
2018-09-11T09:50:44.174Z,24.8
2018-09-11T09:55:46.630Z,24.7
2018-09-11T10:00:49.128Z,24.7
2018-09-11T10:05:51.524Z,24.9
2018-09-11T10:10:53.971Z,25.1
2018-09-11T10:15:56.476Z,25.1
2018-09-11T10:20:58.892Z,25.1
2018-09-11T10:26:01.484Z,25
2018-09-11T10:31:03.899Z,25
2018-09-11T10:36:06.350Z,25.1
2018-09-11T10:41:08.727Z,25.3
2018-09-11T10:46:11.392Z,25.2
2018-09-11T10:51:13.691Z,25.3
2018-09-11T10:56:16.118Z,25.5
2018-09-11T11:01:23.558Z,25.8
2018-09-11T11:06:21.085Z,26
2018-09-11T11:11:23.489Z,26
2018-09-11T11:16:25.928Z,26.2
2018-09-11T11:21:29.185Z,26.3
2018-09-11T11:26:30.870Z,26.3
2018-09-11T11:31:33.466Z,26.5
2018-09-11T11:36:35.775Z,26.4
2018-09-11T11:41:38.574Z,26.3
2018-09-11T11:46:40.766Z,26.4
2018-09-11T11:51:43.275Z,26.3
2018-09-11T11:56:45.636Z,26.3
2018-09-11T12:01:48.227Z,26.1
2018-09-11T12:06:50.669Z,26.1
2018-09-11T12:11:53.023Z,26.2
2018-09-11T12:16:55.551Z,26.4
2018-09-11T12:21:57.930Z,26.5
2018-09-11T12:27:00.712Z,26.7
2018-09-11T12:32:02.878Z,26.9
2018-09-11T12:37:05.319Z,26.7
2018-09-11T12:42:07.929Z,26.6
2018-09-11T12:47:10.300Z,26.4
2018-09-11T12:52:12.729Z,26.3
2018-09-11T12:57:15.153Z,26.2
2018-09-11T13:02:17.699Z,26.3
2018-09-11T13:07:20.036Z,26.5
2018-09-11T13:12:27.664Z,26.7
2018-09-11T13:17:24.977Z,26.6
2018-09-11T13:22:27.443Z,26.7
2018-09-11T13:27:29.887Z,26.7
2018-09-11T13:32:32.379Z,26.4
2018-09-11T13:37:34.797Z,26.2
2018-09-11T13:42:37.347Z,26
2018-09-11T13:47:39.720Z,25.8
2018-09-11T13:52:42.164Z,25.8
2018-09-11T13:57:44.610Z,25.7
2018-09-11T14:02:47.082Z,25.6
2018-09-11T14:07:49.584Z,25.7
2018-09-11T14:12:51.991Z,25.7
2018-09-11T14:17:54.521Z,25.6
2018-09-11T14:22:56.932Z,25.6
2018-09-11T14:27:59.523Z,25.7
2018-09-11T14:33:07.026Z,25.8
2018-09-11T14:38:04.324Z,25.9
2018-09-11T14:43:06.781Z,25.8
2018-09-11T14:48:09.218Z,25.8
2018-09-11T14:53:11.772Z,25.8
2018-09-11T14:58:14.181Z,25.9
2018-09-11T15:03:16.598Z,25.9
2018-09-11T15:08:19.037Z,25.9
2018-09-11T15:13:21.872Z,25.8
2018-09-11T15:18:24.023Z,25.9
2018-09-11T15:23:26.411Z,25.9
2018-09-11T15:28:29.181Z,25.9
2018-09-11T15:33:31.373Z,25.9
2018-09-11T15:38:33.825Z,25.7
2018-09-11T15:43:36.315Z,25.5
2018-09-11T15:48:38.762Z,25.3
2018-09-11T15:53:41.176Z,25.1
2018-09-11T15:58:43.622Z,25
2018-09-11T16:03:46.107Z,24.9
2018-09-11T16:08:48.559Z,24.9
2018-09-11T16:13:51.093Z,24.9
2018-09-11T16:18:53.613Z,24.8
2018-09-11T16:23:55.954Z,24.6
2018-09-11T16:28:58.402Z,24.5
2018-09-11T16:34:00.834Z,24.2
2018-09-11T16:39:03.428Z,24.1
2018-09-11T16:44:06.287Z,23.9
2018-09-11T16:49:08.220Z,23.8
2018-09-11T16:54:10.716Z,23.6
2018-09-11T16:59:13.156Z,23.5
2018-09-11T17:04:15.614Z,23.3
2018-09-11T17:09:18.101Z,23.1
2018-09-11T17:14:20.515Z,22.9
2018-09-11T17:19:23.030Z,22.7
2018-09-11T17:24:25.458Z,22.4
2018-09-11T17:29:27.898Z,22.2
2018-09-11T17:34:30.345Z,21.8
2018-09-11T17:39:32.865Z,21.5
2018-09-11T17:44:35.342Z,21.3
2018-09-11T17:49:37.828Z,21
2018-09-11T17:54:40.230Z,20.8
2018-09-11T17:59:42.683Z,20.6
2018-09-11T18:04:45.135Z,20.4
2018-09-11T18:09:47.578Z,20.2
2018-09-11T18:14:50.165Z,20
2018-09-11T18:19:52.480Z,19.9
2018-09-11T18:24:54.941Z,19.7
2018-09-11T18:29:57.423Z,19.5
2018-09-11T18:34:59.888Z,19.4
2018-09-11T18:40:02.345Z,19.3
2018-09-11T18:45:04.834Z,19.2
2018-09-11T18:50:07.457Z,19
2018-09-11T18:55:09.708Z,18.9
2018-09-11T19:00:12.216Z,18.7
2018-09-11T19:05:14.659Z,18.6
2018-09-11T19:10:17.075Z,18.4
2018-09-11T19:15:19.709Z,18.4
2018-09-11T19:20:22.108Z,18.4
2018-09-11T19:25:24.432Z,18.3
2018-09-11T19:30:26.970Z,18.3
2018-09-11T19:35:29.408Z,18.2
2018-09-11T19:40:31.853Z,18.3
2018-09-11T19:45:34.590Z,18.2
2018-09-11T19:50:36.845Z,18.3
2018-09-11T19:55:39.198Z,18.3
2018-09-11T20:00:41.788Z,18.4
2018-09-11T20:05:44.134Z,18.5
2018-09-11T20:10:46.689Z,18.6
2018-09-11T20:15:49.029Z,18.6
2018-09-11T20:20:51.541Z,18.5
2018-09-11T20:25:53.987Z,18.4
2018-09-11T20:30:56.381Z,18.3
2018-09-11T20:35:58.858Z,18.2
2018-09-11T20:41:01.315Z,18.1
2018-09-11T20:46:03.791Z,18
2018-09-11T20:51:06.570Z,17.9
2018-09-11T20:56:08.730Z,17.7
2018-09-11T21:01:11.134Z,17.6
2018-09-11T21:06:13.689Z,17.6
2018-09-11T21:11:16.063Z,17.5
2018-09-11T21:16:18.555Z,17.4
2018-09-11T21:21:21.056Z,17.3
2018-09-11T21:26:23.433Z,17.3
2018-09-11T21:31:25.887Z,17.2
2018-09-11T21:36:28.362Z,17.1
2018-09-11T21:41:30.833Z,17.1
2018-09-11T21:46:33.265Z,17.1
2018-09-11T21:51:35.776Z,17
2018-09-11T21:56:38.216Z,16.9
2018-09-11T22:01:40.630Z,16.9
2018-09-11T22:06:43.103Z,16.9
2018-09-11T22:11:45.831Z,16.9
2018-09-11T22:16:48.024Z,16.8
2018-09-11T22:21:50.472Z,16.6
2018-09-11T22:26:53.055Z,16.4
2018-09-11T22:31:55.367Z,16.1
2018-09-11T22:36:57.868Z,15.9
2018-09-11T22:42:00.338Z,15.8
2018-09-11T22:47:02.773Z,15.6
2018-09-11T22:52:05.266Z,15.4
2018-09-11T22:57:07.989Z,15.4
2018-09-11T23:02:10.282Z,15.3
2018-09-11T23:07:12.670Z,15.2
2018-09-11T23:12:15.045Z,15.1
2018-09-11T23:17:17.549Z,14.9
2018-09-11T23:22:20.013Z,14.9
2018-09-11T23:27:22.621Z,14.7
2018-09-11T23:32:24.892Z,14.6
2018-09-11T23:37:27.365Z,14.5
2018-09-11T23:42:29.821Z,14.4
2018-09-11T23:47:32.281Z,14.3
2018-09-11T23:52:34.851Z,14.3
2018-09-11T23:57:37.272Z,14.3
